createdAt,value
2018-07-10T00:00:58.109Z,3.20
2018-07-10T00:01:58.164Z,3.40
2018-07-10T00:02:58.121Z,3.20
2018-07-10T00:03:58.196Z,2.30
2018-07-10T00:04:58.208Z,3.60
2018-07-10T00:05:58.130Z,3.60
2018-07-10T00:06:58.137Z,5.10
2018-07-10T00:07:58.145Z,5.10
2018-07-10T00:08:58.167Z,3.80
2018-07-10T00:09:58.095Z,3.80
2018-07-10T00:10:58.135Z,3.50
2018-07-10T00:11:58.194Z,2.30
2018-07-10T00:12:58.173Z,3.10
2018-07-10T00:13:58.140Z,2.90
2018-07-10T00:14:58.205Z,3.10
2018-07-10T00:15:58.148Z,3.80
2018-07-10T00:16:58.174Z,5.10
2018-07-10T00:17:58.098Z,6.00
2018-07-10T00:18:58.224Z,3.50
2018-07-10T00:19:58.214Z,3.30
2018-07-10T00:20:58.111Z,2.90
2018-07-10T00:21:58.144Z,2.90
2018-07-10T00:22:58.112Z,2.80
2018-07-10T00:23:58.200Z,2.40
2018-07-10T00:24:58.142Z,3.30
2018-07-10T00:25:58.206Z,2.30
2018-07-10T00:26:58.140Z,3.00
2018-07-10T00:27:58.179Z,4.20
2018-07-10T00:28:58.218Z,4.60
2018-07-10T00:29:58.083Z,3.50
2018-07-10T00:30:58.091Z,3.20
2018-07-10T00:31:58.104Z,1.80
2018-07-10T00:32:58.116Z,2.20
2018-07-10T00:33:58.120Z,2.40
2018-07-10T00:34:58.073Z,3.40
2018-07-10T00:35:58.121Z,2.00
2018-07-10T00:36:58.187Z,2.60
2018-07-10T00:37:58.126Z,1.30
2018-07-10T00:38:58.135Z,2.80
2018-07-10T00:39:58.122Z,2.10
2018-07-10T00:40:58.121Z,2.90
2018-07-10T00:41:58.189Z,3.80
2018-07-10T00:42:58.166Z,2.70
2018-07-10T00:43:58.216Z,2.70
2018-07-10T00:44:58.120Z,1.60
2018-07-10T00:45:58.113Z,0.70
2018-07-10T00:46:58.217Z,1.60
2018-07-10T00:47:58.235Z,2.30
2018-07-10T00:48:58.194Z,2.70
2018-07-10T00:49:58.236Z,1.80
2018-07-10T00:50:58.142Z,1.80
2018-07-10T00:51:58.200Z,1.00
2018-07-10T00:52:58.118Z,1.90
2018-07-10T00:53:58.115Z,1.80
2018-07-10T00:54:58.123Z,1.90
2018-07-10T00:55:58.159Z,1.60
2018-07-10T00:56:58.223Z,2.90
2018-07-10T00:57:58.182Z,1.10
2018-07-10T00:58:58.120Z,1.50
2018-07-10T00:59:58.201Z,1.10
2018-07-10T01:00:58.241Z,1.30
2018-07-10T01:01:58.242Z,2.50
2018-07-10T01:02:58.183Z,1.80
2018-07-10T01:03:58.110Z,2.90
2018-07-10T01:04:58.124Z,1.90
2018-07-10T01:05:58.129Z,1.80
2018-07-10T01:06:58.172Z,1.40
2018-07-10T01:07:58.247Z,1.80
2018-07-10T01:08:58.184Z,1.30
2018-07-10T01:09:58.213Z,1.30
2018-07-10T01:10:58.243Z,0.80
2018-07-10T01:11:58.251Z,0.40
2018-07-10T01:12:58.151Z,0.60
2018-07-10T01:13:58.237Z,1.10
2018-07-10T01:14:58.213Z,0.70
2018-07-10T01:15:58.212Z,1.30
2018-07-10T01:16:58.247Z,1.60
2018-07-10T01:17:58.254Z,0.50
2018-07-10T01:18:58.359Z,0.50
2018-07-10T01:19:58.245Z,0.70
2018-07-10T01:20:58.302Z,1.40
2018-07-10T01:21:58.176Z,1.00
2018-07-10T01:22:58.123Z,1.10
2018-07-10T01:23:58.199Z,0.40
2018-07-10T01:24:58.203Z,0.80
2018-07-10T01:25:58.248Z,1.00
2018-07-10T01:26:58.184Z,1.80
2018-07-10T01:27:58.150Z,1.10
2018-07-10T01:28:58.258Z,1.30
2018-07-10T01:29:58.187Z,1.90
2018-07-10T01:30:58.256Z,3.10
2018-07-10T01:31:58.201Z,2.10
2018-07-10T01:32:58.164Z,1.80
2018-07-10T01:33:58.223Z,1.70
2018-07-10T01:34:58.248Z,1.90
2018-07-10T01:35:58.238Z,1.70
2018-07-10T01:36:58.188Z,2.10
2018-07-10T01:37:58.258Z,4.20
2018-07-10T01:38:58.227Z,4.00
2018-07-10T01:39:58.271Z,3.10
2018-07-10T01:40:58.230Z,2.10
2018-07-10T01:41:58.209Z,2.10
2018-07-10T01:42:58.194Z,2.30
2018-07-10T01:43:58.230Z,1.70
2018-07-10T01:44:58.196Z,2.70
2018-07-10T01:45:58.189Z,2.80
2018-07-10T01:46:58.271Z,1.80
2018-07-10T01:47:58.234Z,2.10
2018-07-10T01:48:58.203Z,1.90
2018-07-10T01:49:58.221Z,1.90
2018-07-10T01:50:58.270Z,1.70
2018-07-10T01:51:58.199Z,1.90
2018-07-10T01:52:58.214Z,1.70
2018-07-10T01:53:58.173Z,1.70
2018-07-10T01:54:58.173Z,1.40
2018-07-10T01:55:58.238Z,2.20
2018-07-10T01:56:58.241Z,1.90
2018-07-10T01:57:58.174Z,2.20
2018-07-10T01:58:58.175Z,2.20
2018-07-10T01:59:58.251Z,1.90
2018-07-10T02:00:58.236Z,1.90
2018-07-10T02:01:58.176Z,1.70
2018-07-10T02:02:58.211Z,2.80
2018-07-10T02:03:58.217Z,1.80
2018-07-10T02:04:58.250Z,2.40
2018-07-10T02:05:58.172Z,1.30
2018-07-10T02:06:58.173Z,1.70
2018-07-10T02:07:58.211Z,2.00
2018-07-10T02:08:58.220Z,1.50
2018-07-10T02:09:58.250Z,2.30
2018-07-10T02:10:58.212Z,1.50
2018-07-10T02:11:58.171Z,1.40
2018-07-10T02:12:58.276Z,1.50
2018-07-10T02:13:58.257Z,2.10
2018-07-10T02:14:58.281Z,2.00
2018-07-10T02:15:58.176Z,1.80
2018-07-10T02:16:58.256Z,2.30
2018-07-10T02:17:58.215Z,1.10
2018-07-10T02:18:58.255Z,1.60
2018-07-10T02:19:58.256Z,1.50
2018-07-10T02:20:58.299Z,1.30
2018-07-10T02:21:58.274Z,1.80
2018-07-10T02:22:58.256Z,2.10
2018-07-10T02:23:58.285Z,1.00
2018-07-10T02:24:58.288Z,1.60
2018-07-10T02:25:58.297Z,1.90
2018-07-10T02:26:58.261Z,2.50
2018-07-10T02:27:58.282Z,3.10
2018-07-10T02:28:58.262Z,2.00
2018-07-10T02:29:58.225Z,1.50
2018-07-10T02:30:58.283Z,1.80
2018-07-10T02:31:58.303Z,1.90
2018-07-10T02:32:58.241Z,2.50
2018-07-10T02:33:58.300Z,1.90
2018-07-10T02:34:58.189Z,1.40
2018-07-10T02:35:58.254Z,1.30
2018-07-10T02:36:58.211Z,1.40
2018-07-10T02:37:58.306Z,2.70
2018-07-10T02:38:58.287Z,2.10
2018-07-10T02:39:58.248Z,1.80
2018-07-10T02:40:58.236Z,1.90
2018-07-10T02:41:58.173Z,1.50
2018-07-10T02:42:58.302Z,2.90
2018-07-10T02:43:58.173Z,2.10
2018-07-10T02:44:58.257Z,1.00
2018-07-10T02:45:58.179Z,1.40
2018-07-10T02:46:58.247Z,2.10
2018-07-10T02:47:58.255Z,1.10
2018-07-10T02:48:58.183Z,1.30
2018-07-10T02:49:58.179Z,1.60
2018-07-10T02:50:58.354Z,1.30
2018-07-10T02:51:58.279Z,2.10
2018-07-10T02:52:58.202Z,2.90
2018-07-10T02:53:58.197Z,1.60
2018-07-10T02:54:58.259Z,2.00
2018-07-10T02:55:58.284Z,3.60
2018-07-10T02:56:58.281Z,1.30
2018-07-10T02:57:58.285Z,1.30
2018-07-10T02:58:58.327Z,1.30
2018-07-10T02:59:58.185Z,2.30
2018-07-10T03:00:58.245Z,1.80
2018-07-10T03:01:58.313Z,1.60
2018-07-10T03:02:58.267Z,1.90
2018-07-10T03:03:58.210Z,2.90
2018-07-10T03:04:58.187Z,2.10
2018-07-10T03:05:58.310Z,2.90
2018-07-10T03:06:58.255Z,1.80
2018-07-10T03:07:58.323Z,4.10
2018-07-10T03:08:58.192Z,2.50
2018-07-10T03:09:58.327Z,1.90
2018-07-10T03:10:58.264Z,1.90
2018-07-10T03:11:58.197Z,2.40
2018-07-10T03:12:58.257Z,3.50
2018-07-10T03:13:58.266Z,3.70
2018-07-10T03:14:58.333Z,2.40
2018-07-10T03:15:58.332Z,4.50
2018-07-10T03:16:58.256Z,2.30
2018-07-10T03:17:58.455Z,2.50
2018-07-10T03:18:58.237Z,4.00
2018-07-10T03:19:58.222Z,3.90
2018-07-10T03:20:58.218Z,5.20
2018-07-10T03:21:58.274Z,4.40
2018-07-10T03:22:58.338Z,3.20
2018-07-10T03:23:58.171Z,3.20
2018-07-10T03:24:58.170Z,6.60
2018-07-10T03:25:58.220Z,7.60
2018-07-10T03:26:58.296Z,3.30
2018-07-10T03:27:58.297Z,4.10
2018-07-10T03:28:58.206Z,2.20
2018-07-10T03:29:58.210Z,3.40
2018-07-10T03:30:58.264Z,2.50
2018-07-10T03:31:58.264Z,3.80
2018-07-10T03:32:58.173Z,2.60
2018-07-10T03:33:58.242Z,4.20
2018-07-10T03:34:58.315Z,4.40
2018-07-10T03:35:58.245Z,3.80
2018-07-10T03:36:58.245Z,3.90
2018-07-10T03:37:58.247Z,3.50
2018-07-10T03:38:58.311Z,3.80
2018-07-10T03:39:58.313Z,2.20
2018-07-10T03:40:58.380Z,3.40
2018-07-10T03:41:58.325Z,3.30
2018-07-10T03:42:58.250Z,2.00
2018-07-10T03:43:58.274Z,2.00
2018-07-10T03:44:58.353Z,1.80
2018-07-10T03:45:58.293Z,1.20
2018-07-10T03:46:58.223Z,0.50
2018-07-10T03:47:58.339Z,1.20
2018-07-10T03:48:58.346Z,0.90
2018-07-10T03:49:58.294Z,0.10
2018-07-10T03:50:58.313Z,0.10
2018-07-10T03:51:58.217Z,0.40
2018-07-10T03:52:58.347Z,0.20
2018-07-10T03:53:58.238Z,0.20
2018-07-10T03:54:58.340Z,0.50
2018-07-10T03:55:58.246Z,0.50
2018-07-10T03:56:58.227Z,0.40
2018-07-10T03:57:58.349Z,0.30
2018-07-10T03:58:58.230Z,1.10
2018-07-10T03:59:58.249Z,0.80
2018-07-10T04:00:58.352Z,1.00
2018-07-10T04:01:58.299Z,0.40
2018-07-10T04:02:58.289Z,0.00
2018-07-10T04:03:58.282Z,0.00
2018-07-10T04:04:58.361Z,0.00
2018-07-10T04:05:58.354Z,0.40
2018-07-10T04:06:58.356Z,0.00
2018-07-10T04:07:58.296Z,0.00
2018-07-10T04:08:58.348Z,0.10
2018-07-10T04:09:58.289Z,0.20
2018-07-10T04:10:58.292Z,0.00
2018-07-10T04:11:58.300Z,0.60
2018-07-10T04:12:58.375Z,0.00
2018-07-10T04:13:58.287Z,0.00
2018-07-10T04:14:58.371Z,0.00
2018-07-10T04:15:58.293Z,0.00
2018-07-10T04:16:58.367Z,0.00
2018-07-10T04:17:58.332Z,0.00
2018-07-10T04:18:58.370Z,0.00
2018-07-10T04:19:58.304Z,0.00
2018-07-10T04:20:58.312Z,0.00
2018-07-10T04:21:58.361Z,0.00
2018-07-10T04:22:58.246Z,0.00
2018-07-10T04:23:58.335Z,0.00
2018-07-10T04:24:58.314Z,0.00
2018-07-10T04:25:58.299Z,0.00
2018-07-10T04:26:58.337Z,0.00
2018-07-10T04:27:58.372Z,0.00
2018-07-10T04:28:58.268Z,0.00
2018-07-10T04:29:58.366Z,0.00
2018-07-10T04:30:58.314Z,0.00
2018-07-10T04:31:58.317Z,0.30
2018-07-10T04:32:58.262Z,0.00
2018-07-10T04:33:58.349Z,0.00
2018-07-10T04:34:58.322Z,0.30
2018-07-10T04:35:58.380Z,0.00
2018-07-10T04:36:58.255Z,0.00
2018-07-10T04:37:58.346Z,0.00
2018-07-10T04:38:58.288Z,0.00
2018-07-10T04:39:58.309Z,0.00
2018-07-10T04:40:58.287Z,0.00
2018-07-10T04:41:58.350Z,0.40
2018-07-10T04:42:58.255Z,1.10
2018-07-10T04:43:58.394Z,0.10
2018-07-10T04:44:58.305Z,0.30
2018-07-10T04:45:58.318Z,0.00
2018-07-10T04:46:58.427Z,0.20
2018-07-10T04:47:58.384Z,0.00
2018-07-10T04:48:58.418Z,0.10
2018-07-10T04:49:58.259Z,0.60
2018-07-10T04:50:58.327Z,0.60
2018-07-10T04:51:58.383Z,0.90
2018-07-10T04:52:58.373Z,0.30
2018-07-10T04:53:58.249Z,0.20
2018-07-10T04:54:58.238Z,1.10
2018-07-10T04:55:58.324Z,0.60
2018-07-10T04:56:58.251Z,0.60
2018-07-10T04:57:58.253Z,0.80
2018-07-10T04:58:58.288Z,0.40
2018-07-10T04:59:58.312Z,0.80
2018-07-10T05:00:58.243Z,0.80
2018-07-10T05:01:58.231Z,0.30
2018-07-10T05:02:58.249Z,0.60
2018-07-10T05:03:58.353Z,0.30
2018-07-10T05:04:58.284Z,0.60
2018-07-10T05:05:58.365Z,1.20
2018-07-10T05:06:58.350Z,0.30
2018-07-10T05:07:58.359Z,0.40
2018-07-10T05:08:58.276Z,0.30
2018-07-10T05:09:58.373Z,0.20
2018-07-10T05:10:58.356Z,1.00
2018-07-10T05:11:58.395Z,1.70
2018-07-10T05:12:58.364Z,1.50
2018-07-10T05:13:58.352Z,1.90
2018-07-10T05:14:58.277Z,2.80
2018-07-10T05:15:58.344Z,3.30
2018-07-10T05:16:58.340Z,2.70
2018-07-10T05:17:58.339Z,2.40
2018-07-10T05:18:58.276Z,1.80
2018-07-10T05:19:58.349Z,1.50
2018-07-10T05:20:58.282Z,1.50
2018-07-10T05:21:58.332Z,1.70
2018-07-10T05:22:58.364Z,3.10
2018-07-10T05:23:58.348Z,1.40
2018-07-10T05:24:58.342Z,0.80
2018-07-10T05:25:58.389Z,0.20
2018-07-10T05:26:58.394Z,0.40
2018-07-10T05:27:58.383Z,1.10
2018-07-10T05:28:58.473Z,0.30
2018-07-10T05:29:58.320Z,0.40
2018-07-10T05:30:58.399Z,2.70
2018-07-10T05:31:58.295Z,1.20
2018-07-10T05:32:58.364Z,1.50
2018-07-10T05:33:58.314Z,2.80
2018-07-10T05:34:58.309Z,2.80
2018-07-10T05:35:58.344Z,3.10
2018-07-10T05:36:58.318Z,2.50
2018-07-10T05:37:58.366Z,2.50
2018-07-10T05:38:58.279Z,2.70
2018-07-10T05:39:58.321Z,1.30
2018-07-10T05:40:58.326Z,1.60
2018-07-10T05:41:58.397Z,2.10
2018-07-10T05:42:58.317Z,2.30
2018-07-10T05:43:58.389Z,2.70
2018-07-10T05:44:58.396Z,2.30
2018-07-10T05:45:58.394Z,2.80
2018-07-10T05:46:58.397Z,3.10
2018-07-10T05:47:58.373Z,2.60
2018-07-10T05:48:58.423Z,4.20
2018-07-10T05:49:58.438Z,2.00
2018-07-10T05:50:58.398Z,2.20
2018-07-10T05:51:58.316Z,1.70
2018-07-10T05:52:58.407Z,3.40
2018-07-10T05:53:58.378Z,2.00
2018-07-10T05:54:58.394Z,2.00
2018-07-10T05:55:58.304Z,0.90
2018-07-10T05:56:58.319Z,1.90
2018-07-10T05:57:58.298Z,1.20
2018-07-10T05:58:58.423Z,0.80
2018-07-10T05:59:58.416Z,1.80
2018-07-10T06:00:58.431Z,2.50
2018-07-10T06:01:58.405Z,3.40
2018-07-10T06:02:58.428Z,1.50
2018-07-10T06:03:58.435Z,1.10
2018-07-10T06:04:58.433Z,3.10
2018-07-10T06:05:58.320Z,3.70
2018-07-10T06:06:58.437Z,2.80
2018-07-10T06:07:58.437Z,3.10
2018-07-10T06:08:58.375Z,3.80
2018-07-10T06:09:58.317Z,2.60
2018-07-10T06:10:58.443Z,3.00
2018-07-10T06:11:58.414Z,4.20
2018-07-10T06:12:58.332Z,2.80
2018-07-10T06:13:58.479Z,1.70
2018-07-10T06:14:58.370Z,1.90
2018-07-10T06:15:58.377Z,1.40
2018-07-10T06:16:58.378Z,2.40
2018-07-10T06:17:58.372Z,2.70
2018-07-10T06:18:58.435Z,1.90
2018-07-10T06:19:58.385Z,2.40
2018-07-10T06:20:58.326Z,2.00
2018-07-10T06:21:58.414Z,0.80
2018-07-10T06:22:58.375Z,1.60
2018-07-10T06:23:58.380Z,1.30
2018-07-10T06:24:58.284Z,2.30
2018-07-10T06:25:58.285Z,1.50
2018-07-10T06:26:58.378Z,1.90
2018-07-10T06:27:58.414Z,1.30
2018-07-10T06:28:58.410Z,2.40
2018-07-10T06:29:58.352Z,2.30
2018-07-10T06:30:58.415Z,1.90
2018-07-10T06:31:58.413Z,2.60
2018-07-10T06:32:58.359Z,1.10
2018-07-10T06:33:58.325Z,0.90
2018-07-10T06:34:58.407Z,2.00
2018-07-10T06:35:58.316Z,2.20
2018-07-10T06:36:58.349Z,1.80
2018-07-10T06:37:58.417Z,1.60
2018-07-10T06:38:58.409Z,3.00
2018-07-10T06:39:58.424Z,1.20
2018-07-10T06:40:58.333Z,1.70
2018-07-10T06:41:58.419Z,1.50
2018-07-10T06:42:58.300Z,2.60
2018-07-10T06:43:58.460Z,1.90
2018-07-10T06:44:58.434Z,0.70
2018-07-10T06:45:58.333Z,0.50
2018-07-10T06:46:58.475Z,0.60
2018-07-10T06:47:58.412Z,0.40
2018-07-10T06:48:58.344Z,1.20
2018-07-10T06:49:58.416Z,0.90
2018-07-10T06:50:58.414Z,1.20
2018-07-10T06:51:58.473Z,0.70
2018-07-10T06:52:58.749Z,0.40
2018-07-10T06:53:58.443Z,1.90
2018-07-10T06:54:58.376Z,1.50
2018-07-10T06:55:58.451Z,0.90
2018-07-10T06:56:58.349Z,0.10
2018-07-10T06:57:58.403Z,0.40
2018-07-10T06:58:58.414Z,2.30
2018-07-10T06:59:58.376Z,1.70
2018-07-10T07:00:58.464Z,1.40
2018-07-10T07:01:58.445Z,0.70
2018-07-10T07:02:58.403Z,0.50
2018-07-10T07:03:58.423Z,0.30
2018-07-10T07:04:58.416Z,0.10
2018-07-10T07:05:58.348Z,0.00
2018-07-10T07:06:58.419Z,0.40
2018-07-10T07:07:58.361Z,1.80
2018-07-10T07:08:58.435Z,0.90
2018-07-10T07:09:58.390Z,0.50
2018-07-10T07:10:58.413Z,1.50
2018-07-10T07:11:58.457Z,1.80
2018-07-10T07:12:58.432Z,0.80
2018-07-10T07:13:58.357Z,1.00
2018-07-10T07:14:58.374Z,0.60
2018-07-10T07:15:58.359Z,1.00
2018-07-10T07:16:58.479Z,0.90
2018-07-10T07:17:58.361Z,0.60
2018-07-10T07:18:58.364Z,1.50
2018-07-10T07:19:58.367Z,2.90
2018-07-10T07:20:58.398Z,1.10
2018-07-10T07:21:58.397Z,0.40
2018-07-10T07:22:58.423Z,1.50
2018-07-10T07:23:58.367Z,0.70
2018-07-10T07:24:58.565Z,0.60
2018-07-10T07:25:58.462Z,0.60
2018-07-10T07:26:58.394Z,0.40
2018-07-10T07:27:58.394Z,0.70
2018-07-10T07:28:58.462Z,0.00
2018-07-10T07:29:58.427Z,0.70
2018-07-10T07:30:58.404Z,0.40
2018-07-10T07:31:58.402Z,0.70
2018-07-10T07:32:58.462Z,1.80
2018-07-10T07:33:58.416Z,1.80
2018-07-10T07:34:58.488Z,2.40
2018-07-10T07:35:58.471Z,2.40
2018-07-10T07:36:58.485Z,2.00
2018-07-10T07:37:58.451Z,2.30
2018-07-10T07:38:58.423Z,2.00
2018-07-10T07:39:58.390Z,3.40
2018-07-10T07:40:58.454Z,2.00
2018-07-10T07:41:58.472Z,1.20
2018-07-10T07:42:58.477Z,0.90
2018-07-10T07:43:58.499Z,2.60
2018-07-10T07:44:58.497Z,2.00
2018-07-10T07:45:58.473Z,1.00
2018-07-10T07:46:58.378Z,1.20
2018-07-10T07:47:58.501Z,1.60
2018-07-10T07:48:58.378Z,1.70
2018-07-10T07:49:58.435Z,1.50
2018-07-10T07:50:58.559Z,1.20
2018-07-10T07:51:58.508Z,0.40
2018-07-10T07:52:58.449Z,0.70
2018-07-10T07:53:58.459Z,1.00
2018-07-10T07:54:58.574Z,0.40
2018-07-10T07:55:58.444Z,0.20
2018-07-10T07:56:58.498Z,0.00
2018-07-10T07:57:58.481Z,0.20
2018-07-10T07:58:58.510Z,0.10
2018-07-10T07:59:58.445Z,0.10
2018-07-10T08:00:58.483Z,0.70
2018-07-10T08:01:58.442Z,1.60
2018-07-10T08:02:58.390Z,1.60
2018-07-10T08:03:58.426Z,0.80
2018-07-10T08:04:58.399Z,1.40
2018-07-10T08:05:58.415Z,0.90
2018-07-10T08:06:58.384Z,0.50
2018-07-10T08:07:58.512Z,0.70
2018-07-10T08:08:58.457Z,1.20
2018-07-10T08:09:58.455Z,2.00
2018-07-10T08:10:58.396Z,2.70
2018-07-10T08:11:58.391Z,1.90
2018-07-10T08:12:58.469Z,1.20
2018-07-10T08:13:58.527Z,1.30
2018-07-10T08:14:58.427Z,1.60
2018-07-10T08:15:58.499Z,1.70
2018-07-10T08:16:58.430Z,3.10
2018-07-10T08:17:58.429Z,2.60
2018-07-10T08:18:58.496Z,2.40
2018-07-10T08:19:58.432Z,3.70
2018-07-10T08:20:58.534Z,1.20
2018-07-10T08:21:58.497Z,1.10
2018-07-10T08:22:58.435Z,1.20
2018-07-10T08:23:58.434Z,1.00
2018-07-10T08:24:58.498Z,0.40
2018-07-10T08:25:58.502Z,1.00
2018-07-10T08:26:58.503Z,0.20
2018-07-10T08:27:58.500Z,0.30
2018-07-10T08:28:58.502Z,0.60
2018-07-10T08:29:58.507Z,0.20
2018-07-10T08:30:58.505Z,0.70
2018-07-10T08:31:58.437Z,1.30
2018-07-10T08:32:58.519Z,0.90
2018-07-10T08:33:58.528Z,1.30
2018-07-10T08:34:58.461Z,0.30
2018-07-10T08:35:58.474Z,1.00
2018-07-10T08:36:58.512Z,1.10
2018-07-10T08:37:58.508Z,1.40
2018-07-10T08:38:58.468Z,0.90
2018-07-10T08:39:58.510Z,1.70
2018-07-10T08:40:58.510Z,1.50
2018-07-10T08:41:58.536Z,2.30
2018-07-10T08:42:58.446Z,1.80
2018-07-10T08:43:58.446Z,1.40
2018-07-10T08:44:58.421Z,3.10
2018-07-10T08:45:58.416Z,2.40
2018-07-10T08:46:58.445Z,2.00
2018-07-10T08:47:58.379Z,2.00
2018-07-10T08:48:58.418Z,2.00
2018-07-10T08:49:58.468Z,1.90
2018-07-10T08:50:58.443Z,1.90
2018-07-10T08:51:58.404Z,1.40
2018-07-10T08:52:58.523Z,1.20
2018-07-10T08:53:58.508Z,2.80
2018-07-10T08:54:58.454Z,2.30
2018-07-10T08:55:58.455Z,2.20
2018-07-10T08:56:58.454Z,2.70
2018-07-10T08:57:58.552Z,0.90
2018-07-10T08:58:58.522Z,1.00
2018-07-10T08:59:58.524Z,0.60
2018-07-10T09:00:58.458Z,0.60
2018-07-10T09:01:58.525Z,1.40
2018-07-10T09:02:58.529Z,0.30
2018-07-10T09:03:58.459Z,0.10
2018-07-10T09:04:58.528Z,1.10
2018-07-10T09:05:58.397Z,0.90
2018-07-10T09:06:58.514Z,0.80
2018-07-10T09:07:58.517Z,0.50
2018-07-10T09:08:58.481Z,0.50
2018-07-10T09:09:58.519Z,1.00
2018-07-10T09:10:58.399Z,0.30
2018-07-10T09:11:58.518Z,0.70
2018-07-10T09:12:58.520Z,0.80
2018-07-10T09:13:58.581Z,1.80
2018-07-10T09:14:58.466Z,0.80
2018-07-10T09:15:58.532Z,0.80
2018-07-10T09:16:58.468Z,2.50
2018-07-10T09:17:58.535Z,1.20
2018-07-10T09:18:58.483Z,0.50
2018-07-10T09:19:58.538Z,1.30
2018-07-10T09:20:58.470Z,1.20
2018-07-10T09:21:58.538Z,1.00
2018-07-10T09:22:58.511Z,0.90
2018-07-10T09:23:58.478Z,1.30
2018-07-10T09:24:58.518Z,0.70
2018-07-10T09:25:58.543Z,1.30
2018-07-10T09:26:58.580Z,0.30
2018-07-10T09:27:58.446Z,1.50
2018-07-10T09:28:58.512Z,0.20
2018-07-10T09:29:58.540Z,0.10
2018-07-10T09:30:58.467Z,0.00
2018-07-10T09:31:58.512Z,0.00
2018-07-10T09:32:58.586Z,1.10
2018-07-10T09:33:58.567Z,0.90
2018-07-10T09:34:58.506Z,0.30
2018-07-10T09:35:58.573Z,0.00
2018-07-10T09:36:58.580Z,0.20
2018-07-10T09:37:58.518Z,0.20
2018-07-10T09:38:58.505Z,0.30
2018-07-10T09:39:58.616Z,1.10
2018-07-10T09:40:58.519Z,0.60
2018-07-10T09:41:58.478Z,3.10
2018-07-10T09:42:58.553Z,1.10
2018-07-10T09:43:58.652Z,1.40
2018-07-10T09:44:58.516Z,2.60
2018-07-10T09:45:58.537Z,2.60
2018-07-10T09:46:58.561Z,2.20
2018-07-10T09:47:58.515Z,1.40
2018-07-10T09:48:58.529Z,1.20
2018-07-10T09:49:58.593Z,2.20
2018-07-10T09:50:58.523Z,0.90
2018-07-10T09:51:58.575Z,1.10
2018-07-10T09:52:58.522Z,2.90
2018-07-10T09:53:58.466Z,0.70
2018-07-10T09:54:58.580Z,1.20
2018-07-10T09:55:58.467Z,2.00
2018-07-10T09:56:58.482Z,1.70
2018-07-10T09:57:58.561Z,1.30
2018-07-10T09:58:58.575Z,1.20
2018-07-10T09:59:58.597Z,1.30
2018-07-10T10:00:58.565Z,0.70
2018-07-10T10:01:58.623Z,0.70
2018-07-10T10:02:58.568Z,0.70
2018-07-10T10:03:58.528Z,1.20
2018-07-10T10:04:58.603Z,0.60
2018-07-10T10:05:58.472Z,0.20
2018-07-10T10:06:58.588Z,0.60
2018-07-10T10:07:58.523Z,1.20
2018-07-10T10:08:58.530Z,3.00
2018-07-10T10:09:58.530Z,0.90
2018-07-10T10:10:58.528Z,1.50
2018-07-10T10:11:58.473Z,1.00
2018-07-10T10:12:58.499Z,1.70
2018-07-10T10:13:58.594Z,1.40
2018-07-10T10:14:58.539Z,0.40
2018-07-10T10:15:58.549Z,0.70
2018-07-10T10:16:58.478Z,0.50
2018-07-10T10:17:58.558Z,1.30
2018-07-10T10:18:58.546Z,0.40
2018-07-10T10:19:58.613Z,1.00
2018-07-10T10:20:58.545Z,0.70
2018-07-10T10:21:58.488Z,0.90
2018-07-10T10:22:58.616Z,1.00
2018-07-10T10:23:58.475Z,1.50
2018-07-10T10:24:58.581Z,1.30
2018-07-10T10:25:58.601Z,0.10
2018-07-10T10:26:58.503Z,0.10
2018-07-10T10:27:58.556Z,0.40
2018-07-10T10:28:58.614Z,0.40
2018-07-10T10:29:58.560Z,1.90
2018-07-10T10:30:58.556Z,3.70
2018-07-10T10:31:58.552Z,2.70
2018-07-10T10:32:58.609Z,1.80
2018-07-10T10:33:58.616Z,1.70
2018-07-10T10:34:58.520Z,0.80
2018-07-10T10:35:58.525Z,1.60
2018-07-10T10:36:58.530Z,2.80
2018-07-10T10:37:58.599Z,0.80
2018-07-10T10:38:58.523Z,1.90
2018-07-10T10:39:58.532Z,1.70
2018-07-10T10:40:58.596Z,2.00
2018-07-10T10:41:58.591Z,1.20
2018-07-10T10:42:58.526Z,1.80
2018-07-10T10:43:58.601Z,1.10
2018-07-10T10:44:58.613Z,2.60
2018-07-10T10:45:58.613Z,1.60
2018-07-10T10:46:58.555Z,2.30
2018-07-10T10:47:58.596Z,1.50
2018-07-10T10:48:58.631Z,1.30
2018-07-10T10:49:58.625Z,1.10
2018-07-10T10:50:58.621Z,0.80
2018-07-10T10:51:58.562Z,1.90
2018-07-10T10:52:58.507Z,1.70
2018-07-10T10:53:58.637Z,1.90
2018-07-10T10:54:58.674Z,1.60
2018-07-10T10:55:58.574Z,1.00
2018-07-10T10:56:58.505Z,2.00
2018-07-10T10:57:58.631Z,2.20
2018-07-10T10:58:58.605Z,1.20
2018-07-10T10:59:58.607Z,2.30
2018-07-10T11:00:58.581Z,2.60
2018-07-10T11:01:58.562Z,2.90
2018-07-10T11:02:58.510Z,1.80
2018-07-10T11:03:58.566Z,1.40
2018-07-10T11:04:58.514Z,0.70
2018-07-10T11:05:58.601Z,1.40
2018-07-10T11:06:58.591Z,0.70
2018-07-10T11:07:58.607Z,0.20
2018-07-10T11:08:58.497Z,0.20
2018-07-10T11:09:58.538Z,0.60
2018-07-10T11:10:58.545Z,1.00
2018-07-10T11:11:58.496Z,0.70
2018-07-10T11:12:58.534Z,0.10
2018-07-10T11:13:58.606Z,0.30
2018-07-10T11:14:58.534Z,0.10
2018-07-10T11:15:58.575Z,0.30
2018-07-10T11:16:58.635Z,0.60
2018-07-10T11:17:58.654Z,1.20
2018-07-10T11:18:58.574Z,1.00
2018-07-10T11:19:58.517Z,0.10
2018-07-10T11:20:58.617Z,0.20
2018-07-10T11:21:58.639Z,0.20
2018-07-10T11:22:58.525Z,0.40
2018-07-10T11:23:58.585Z,0.40
2018-07-10T11:24:58.619Z,0.00
2018-07-10T11:25:58.621Z,0.30
2018-07-10T11:26:58.561Z,0.40
2018-07-10T11:27:58.555Z,0.20
2018-07-10T11:28:58.663Z,0.50
2018-07-10T11:29:58.625Z,0.40
2018-07-10T11:30:58.558Z,0.00
2018-07-10T11:31:58.627Z,0.70
2018-07-10T11:32:58.557Z,0.20
2018-07-10T11:33:58.627Z,0.10
2018-07-10T11:34:58.650Z,0.70
2018-07-10T11:35:58.657Z,0.70
2018-07-10T11:36:58.534Z,0.00
2018-07-10T11:37:58.590Z,0.10
2018-07-10T11:38:58.728Z,0.50
2018-07-10T11:39:58.583Z,0.40
2018-07-10T11:40:58.664Z,0.40
2018-07-10T11:41:58.651Z,1.20
2018-07-10T11:42:58.633Z,0.30
2018-07-10T11:43:58.595Z,0.40
2018-07-10T11:44:58.545Z,0.20
2018-07-10T11:45:58.614Z,0.00
2018-07-10T11:46:58.558Z,0.50
2018-07-10T11:47:58.560Z,0.00
2018-07-10T11:48:58.599Z,0.00
2018-07-10T11:49:58.616Z,0.00
2018-07-10T11:50:58.669Z,0.40
2018-07-10T11:51:58.617Z,0.00
2018-07-10T11:52:58.562Z,0.10
2018-07-10T11:53:58.641Z,0.40
2018-07-10T11:54:58.658Z,0.80
2018-07-10T11:55:58.626Z,0.10
2018-07-10T11:56:58.548Z,0.00
2018-07-10T11:57:58.512Z,0.50
2018-07-10T11:58:58.622Z,0.00
2018-07-10T11:59:58.595Z,0.30
2018-07-10T12:00:58.512Z,0.00
2018-07-10T12:01:58.594Z,0.00
2018-07-10T12:02:58.637Z,0.70
2018-07-10T12:03:58.549Z,0.60
2018-07-10T12:04:58.590Z,1.30
2018-07-10T12:05:58.604Z,0.70
2018-07-10T12:06:58.652Z,0.10
2018-07-10T12:07:58.675Z,0.10
2018-07-10T12:08:58.559Z,0.90
2018-07-10T12:09:58.615Z,0.90
2018-07-10T12:10:58.610Z,1.90
2018-07-10T12:11:58.573Z,0.50
2018-07-10T12:12:58.674Z,0.80
2018-07-10T12:13:58.649Z,1.40
2018-07-10T12:14:58.557Z,0.60
2018-07-10T12:15:58.660Z,0.80
2018-07-10T12:16:58.695Z,1.70
2018-07-10T12:17:58.611Z,1.90
2018-07-10T12:18:58.555Z,0.90
2018-07-10T12:19:58.658Z,1.70
2018-07-10T12:20:58.680Z,1.20
2018-07-10T12:21:58.700Z,1.20
2018-07-10T12:22:58.717Z,2.60
2018-07-10T12:23:58.689Z,1.90
2018-07-10T12:24:58.691Z,0.60
2018-07-10T12:25:58.623Z,1.10
2018-07-10T12:26:58.637Z,0.70
2018-07-10T12:27:58.649Z,1.40
2018-07-10T12:28:58.686Z,0.70
2018-07-10T12:29:58.638Z,1.00
2018-07-10T12:30:58.625Z,1.20
2018-07-10T12:31:58.570Z,1.80
2018-07-10T12:32:58.684Z,0.70
2018-07-10T12:33:58.648Z,0.60
2018-07-10T12:34:58.759Z,0.70
2018-07-10T12:35:58.574Z,0.90
2018-07-10T12:36:58.689Z,0.70
2018-07-10T12:37:58.690Z,1.40
2018-07-10T12:38:58.627Z,1.90
2018-07-10T12:39:58.653Z,0.80
2018-07-10T12:40:58.636Z,1.40
2018-07-10T12:41:58.596Z,1.60
2018-07-10T12:42:58.674Z,1.70
2018-07-10T12:43:58.645Z,1.40
2018-07-10T12:44:58.575Z,0.80
2018-07-10T12:45:58.710Z,0.50
2018-07-10T12:46:58.582Z,0.60
2018-07-10T12:47:58.581Z,0.00
2018-07-10T12:48:58.632Z,0.00
2018-07-10T12:49:58.643Z,0.30
2018-07-10T12:50:58.709Z,0.30
2018-07-10T12:51:58.578Z,0.60
2018-07-10T12:52:58.689Z,0.60
2018-07-10T12:53:58.600Z,0.53
2018-07-10T12:54:58.663Z,0.00
2018-07-10T12:55:58.706Z,0.00
2018-07-10T12:56:58.683Z,0.60
2018-07-10T12:57:58.647Z,0.50
2018-07-10T12:58:58.580Z,0.50
2018-07-10T12:59:58.709Z,0.20
2018-07-10T13:00:58.639Z,1.20
2018-07-10T13:01:58.728Z,0.20
2018-07-10T13:02:58.653Z,1.20
2018-07-10T13:03:58.595Z,0.70
2018-07-10T13:04:58.671Z,0.40
2018-07-10T13:05:58.611Z,0.70
2018-07-10T13:06:58.693Z,0.40
2018-07-10T13:07:58.695Z,0.90
2018-07-10T13:08:58.670Z,1.10
2018-07-10T13:09:58.692Z,0.00
2018-07-10T13:10:58.735Z,0.20
2018-07-10T13:11:58.621Z,1.70
2018-07-10T13:12:58.689Z,1.10
2018-07-10T13:13:58.697Z,0.50
2018-07-10T13:14:58.658Z,0.60
2018-07-10T13:15:58.697Z,1.80
2018-07-10T13:16:58.706Z,1.40
2018-07-10T13:17:58.659Z,1.70
2018-07-10T13:18:58.654Z,1.60